Time;durP1;ratioP1;P1;durP2;ratioP2;P2;SDS_P1;SDS_P2;PMS_P1;PMS_P2;Temp;Humidity;BMP_temperature;BMP_pressure;BME280_temperature;BME280_humidity;BME280_pressure;Samples;Min_cycle;Max_cycle;Signal;HPM_P1;HPM_P2
2023/12/04 00:01:00;;;;;;;;;10.75;7.50;;;;;6.46;50.08;100570.75;5030898;28;45405;-65
2023/12/04 00:03:25;;;;;;;;;11.25;8.75;;;;;6.34;50.17;100547.13;5021542;28;45402;-65
2023/12/04 00:05:50;;;;;;;;;10.75;9.25;;;;;6.38;49.54;100535.59;5028334;28;45501;-65
2023/12/04 00:08:16;;;;;;;;;10.00;9.50;;;;;6.39;49.82;100537.31;5037180;28;45614;-65
2023/12/04 00:10:41;;;;;;;;;3.00;1.00;;;;;6.35;49.57;100527.69;5041151;28;45459;-66
2023/12/04 00:13:06;;;;;;;;;10.50;9.00;;;;;6.28;49.80;100518.97;5056305;28;45398;-65
2023/12/04 00:15:31;;;;;;;;;7.50;6.00;;;;;6.30;49.37;100514.50;5051519;28;56412;-65
2023/12/04 00:17:57;;;;;;;;;12.50;11.00;;;;;6.30;50.19;100503.03;5053468;28;45481;-65
2023/12/04 00:20:22;;;;;;;;;13.50;9.75;;;;;6.43;49.83;100508.97;5047348;28;45411;-65
2023/12/04 00:22:47;;;;;;;;;13.50;9.50;;;;;6.45;49.86;100504.53;5041542;28;45304;-65
2023/12/04 00:25:13;;;;;;;;;10.00;7.75;;;;;6.64;50.14;100532.41;5060758;28;45635;-65
2023/12/04 00:27:38;;;;;;;;;8.25;5.25;;;;;6.52;50.16;100508.81;5059278;28;45338;-65
2023/12/04 00:30:06;;;;;;;;;10.75;9.00;;;;;6.72;50.49;100532.28;5049411;28;45392;-65
2023/12/04 00:32:32;;;;;;;;;10.75;9.75;;;;;6.65;50.29;100510.31;5047899;28;45387;-65
2023/12/04 00:34:57;;;;;;;;;7.75;7.75;;;;;6.57;50.07;100493.66;5041021;28;45467;-65
2023/12/04 00:37:22;;;;;;;;;13.00;9.75;;;;;6.58;49.97;100486.56;5037524;28;57837;-65
2023/12/04 00:39:48;;;;;;;;;13.00;11.50;;;;;6.79;50.28;100509.16;5051438;28;48498;-65
2023/12/04 00:42:13;;;;;;;;;9.00;9.00;;;;;6.56;49.73;100477.78;5064103;28;45470;-65
2023/12/04 00:44:38;;;;;;;;;5.00;5.00;;;;;6.62;50.46;100483.84;5030012;28;47334;-65
2023/12/04 00:47:04;;;;;;;;;10.25;10.00;;;;;6.56;49.93;100454.78;5059026;28;45443;-65
2023/12/04 00:49:29;;;;;;;;;10.00;7.25;;;;;6.70;49.98;100478.41;5022703;28;45542;-65
2023/12/04 00:51:54;;;;;;;;;12.25;8.50;;;;;6.63;50.51;100442.28;5056155;28;45470;-65
2023/12/04 00:54:20;;;;;;;;;11.00;10.75;;;;;6.67;50.31;100442.19;5042550;28;47360;-65
2023/12/04 00:56:45;;;;;;;;;10.00;8.25;;;;;6.84;50.81;100455.06;5058623;28;45480;-65
2023/12/04 00:59:11;;;;;;;;;15.50;10.00;;;;;6.71;50.95;100427.06;5041001;28;45414;-65
2023/12/04 01:01:37;;;;;;;;;8.25;8.25;;;;;6.98;50.40;100459.22;5040934;28;45462;-65
2023/12/04 01:04:03;;;;;;;;;11.75;9.75;;;;;6.67;50.17;100399.75;5046856;28;45400;-65
2023/12/04 01:06:29;;;;;;;;;13.00;9.00;;;;;6.79;50.15;100406.56;5050313;28;45431;-65
2023/12/04 01:08:55;;;;;;;;;8.50;7.00;;;;;6.82;50.67;100414.44;5047252;28;45326;-65
2023/12/04 01:11:20;;;;;;;;;10.25;8.00;;;;;6.75;49.96;100394.28;5046611;28;45561;-65
2023/12/04 01:13:46;;;;;;;;;10.25;9.75;;;;;6.99;50.52;100414.06;5005995;28;47247;-65
2023/12/04 01:16:11;;;;;;;;;11.00;7.50;;;;;6.86;50.39;100391.38;5053554;28;45314;-65
2023/12/04 01:18:37;;;;;;;;;8.25;7.75;;;;;7.05;49.99;100407.75;5040725;28;45371;-65
2023/12/04 01:21:02;;;;;;;;;10.00;10.00;;;;;6.82;50.31;100357.88;5040332;28;45371;-65
2023/12/04 01:23:28;;;;;;;;;12.00;7.00;;;;;6.74;50.49;100336.81;5040153;28;46393;-65
2023/12/04 01:25:53;;;;;;;;;7.00;5.00;;;;;6.87;50.60;100366.59;5040141;28;45415;-65
2023/12/04 01:28:18;;;;;;;;;9.50;7.00;;;;;7.08;50.44;100383.78;5040009;28;45356;-66
2023/12/04 01:30:44;;;;;;;;;6.75;5.75;;;;;7.13;50.18;100388.97;5040079;28;45506;-65
2023/12/04 01:33:09;;;;;;;;;11.25;7.50;;;;;6.91;49.94;100344.38;5041014;28;47187;-65
2023/12/04 01:35:35;;;;;;;;;11.50;8.50;;;;;6.89;50.05;100335.59;5058214;28;45382;-65
2023/12/04 01:38:00;;;;;;;;;7.00;7.00;;;;;6.95;50.43;100343.41;5029060;28;45482;-65
2023/12/04 01:40:26;;;;;;;;;9.25;7.00;;;;;6.93;50.61;100331.06;5060104;28;45486;-65
2023/12/04 01:42:52;;;;;;;;;3.00;3.00;;;;;7.08;50.62;100359.03;5025848;28;48692;-65
2023/12/04 01:45:18;;;;;;;;;6.25;6.25;;;;;7.14;50.73;100357.09;5059991;28;45329;-65
2023/12/04 01:47:43;;;;;;;;;6.25;6.25;;;;;6.99;50.22;100347.72;5040042;28;45536;-65
2023/12/04 01:50:09;;;;;;;;;6.00;5.00;;;;;7.00;50.35;100335.31;5039875;28;45522;-65
2023/12/04 01:52:36;;;;;;;;;6.50;6.00;;;;;7.03;50.22;100333.47;5052398;28;45350;-65
2023/12/04 01:55:02;;;;;;;;;9.00;7.50;;;;;7.12;50.22;100353.63;5057328;28;45318;-65
2023/12/04 01:57:28;;;;;;;;;10.50;7.00;;;;;7.04;50.41;100329.91;5029293;28;45434;-65
2023/12/04 01:59:53;;;;;;;;;11.25;7.50;;;;;7.03;50.09;100320.22;5043612;28;45778;-65
2023/12/04 02:02:20;;;;;;;;;8.50;7.50;;;;;6.96;50.25;100313.28;5052408;28;45383;-65
2023/12/04 02:04:45;;;;;;;;;6.00;6.00;;;;;7.20;50.77;100372.00;5049647;28;46312;-65
2023/12/04 02:07:11;;;;;;;;;4.00;4.00;;;;;7.09;50.38;100358.13;5042296;28;45524;-65
2023/12/04 02:09:37;;;;;;;;;8.50;6.50;;;;;7.03;50.12;100348.50;5039483;28;45358;-65
2023/12/04 02:12:03;;;;;;;;;8.75;7.50;;;;;7.17;49.99;100365.00;5039420;28;45599;-65
2023/12/04 02:14:29;;;;;;;;;10.75;9.00;;;;;7.10;50.33;100359.84;5033025;28;45485;-65
2023/12/04 02:16:55;;;;;;;;;4.75;4.75;;;;;7.00;50.47;100333.56;5053432;28;45458;-65
2023/12/04 02:19:21;;;;;;;;;8.50;7.50;;;;;6.89;50.53;100317.00;5034595;28;45280;-65
2023/12/04 02:21:46;;;;;;;;;8.50;7.00;;;;;6.95;50.67;100321.28;5053092;28;45549;-65
2023/12/04 02:24:12;;;;;;;;;6.75;6.00;;;;;7.03;50.81;100344.09;5044692;28;47272;-65
2023/12/04 02:26:47;;;;;;;;;10.00;8.00;;;;;7.16;50.41;100375.66;5045699;28;45462;-65
2023/12/04 02:29:19;;;;;;;;;11.25;7.75;;;;;6.93;50.37;100325.75;5058174;28;45487;-65
2023/12/04 02:31:45;;;;;;;;;9.00;7.25;;;;;7.14;50.61;100365.06;5046040;28;46646;-65
2023/12/04 02:34:15;;;;;;;;;7.00;7.00;;;;;6.85;50.71;100325.97;5054685;28;45315;-65
2023/12/04 02:36:42;;;;;;;;;12.00;7.00;;;;;6.98;50.98;100331.84;5040765;28;45431;-65
2023/12/04 02:39:08;;;;;;;;;9.50;9.50;;;;;6.86;50.83;100320.59;5025960;28;45378;-65
2023/12/04 02:41:34;;;;;;;;;10.75;9.25;;;;;7.14;51.04;100366.84;5057461;28;46021;-65
2023/12/04 02:43:59;;;;;;;;;6.00;6.00;;;;;6.95;50.64;100323.94;5034299;28;45475;-65
2023/12/04 02:46:24;;;;;;;;;9.75;6.75;;;;;7.15;50.57;100368.56;5014441;28;45458;-65
2023/12/04 02:48:50;;;;;;;;;8.50;8.50;;;;;7.08;51.03;100351.06;5045015;28;57051;-65
2023/12/04 02:51:15;;;;;;;;;12.00;9.50;;;;;7.01;51.16;100340.59;5057169;28;46335;-65
2023/12/04 02:53:40;;;;;;;;;10.00;8.25;;;;;6.88;51.27;100314.38;5054699;28;45269;-65
2023/12/04 02:56:06;;;;;;;;;10.75;8.25;;;;;6.91;51.41;100306.38;5058894;28;45304;-65
2023/12/04 02:58:34;;;;;;;;;7.50;7.50;;;;;6.95;51.07;100303.59;5045003;28;45434;-65
2023/12/04 03:00:59;;;;;;;;;7.00;6.50;;;;;6.92;50.93;100297.50;5048887;28;46614;-65
2023/12/04 03:03:24;;;;;;;;;6.00;6.00;;;;;7.16;51.16;100328.72;5058695;28;45428;-65
2023/12/04 03:05:50;;;;;;;;;10.50;7.75;;;;;6.82;51.21;100263.22;5048422;28;45723;-65
2023/12/04 03:08:15;;;;;;;;;8.25;6.50;;;;;6.92;50.80;100266.53;5039851;28;45586;-65
2023/12/04 03:10:41;;;;;;;;;6.25;6.25;;;;;6.91;51.34;100255.94;5050095;28;45451;-65
2023/12/04 03:13:06;;;;;;;;;7.50;7.50;;;;;7.14;51.25;100281.91;5038517;28;45531;-65
2023/12/04 03:15:31;;;;;;;;;8.00;7.00;;;;;7.03;51.53;100258.28;5029300;28;45340;-65
2023/12/04 03:17:59;;;;;;;;;10.75;10.75;;;;;7.05;51.69;100251.19;5056579;28;45472;-65
2023/12/04 03:20:24;;;;;;;;;7.75;6.75;;;;;7.07;51.34;100251.09;5035767;28;47153;-65
2023/12/04 03:22:50;;;;;;;;;11.75;9.50;;;;;7.13;51.74;100264.22;5040167;28;45336;-65
2023/12/04 03:25:15;;;;;;;;;11.25;7.75;;;;;7.08;51.24;100247.56;5050220;28;45512;-65
2023/12/04 03:27:40;;;;;;;;;5.75;5.75;;;;;6.97;51.39;100226.63;5036452;28;45553;-65
2023/12/04 03:30:06;;;;;;;;;10.75;6.75;;;;;7.05;51.73;100232.59;5041747;28;45268;-65
2023/12/04 03:32:32;;;;;;;;;5.50;5.50;;;;;6.98;51.88;100239.84;5037117;28;45256;-65
2023/12/04 03:34:57;;;;;;;;;7.00;6.00;;;;;7.05;51.73;100240.56;5052999;28;45343;-65
2023/12/04 03:37:22;;;;;;;;;11.25;8.00;;;;;7.15;51.78;100257.09;5041793;28;45482;-65
2023/12/04 03:39:48;;;;;;;;;5.00;5.00;;;;;7.13;51.50;100246.50;5042071;28;46328;-65
2023/12/04 03:42:13;;;;;;;;;7.75;6.75;;;;;6.98;52.08;100212.41;5041745;28;45385;-65
2023/12/04 03:44:38;;;;;;;;;10.00;7.00;;;;;7.10;52.06;100225.38;5042294;28;45390;-66
2023/12/04 03:47:04;;;;;;;;;6.75;6.00;;;;;7.07;51.83;100211.28;5071528;28;45552;-65
2023/12/04 03:49:29;;;;;;;;;7.75;6.75;;;;;7.19;51.83;100235.75;5052691;28;46984;-65
2023/12/04 03:51:54;;;;;;;;;4.25;3.50;;;;;7.13;51.79;100211.16;5048596;28;49580;-65
2023/12/04 03:54:20;;;;;;;;;11.25;6.00;;;;;7.35;51.83;100252.16;5043829;28;45375;-65
2023/12/04 03:56:45;;;;;;;;;6.75;6.25;;;;;7.08;52.20;100208.59;5061033;28;45454;-65
2023/12/04 03:59:11;;;;;;;;;6.00;6.00;;;;;7.09;52.87;100209.50;5049266;28;45417;-65
2023/12/04 04:01:36;;;;;;;;;6.00;5.00;;;;;7.06;52.85;100202.47;5041558;28;45316;-65
2023/12/04 04:04:02;;;;;;;;;7.00;7.00;;;;;7.33;53.14;100245.13;5041775;28;45514;-65
2023/12/04 04:06:27;;;;;;;;;6.50;5.50;;;;;7.29;53.58;100238.16;5054482;28;46770;-65
2023/12/04 04:08:52;;;;;;;;;7.50;6.00;;;;;7.16;53.98;100216.38;5030077;28;47252;-65
2023/12/04 04:11:18;;;;;;;;;7.25;6.00;;;;;6.98;54.47;100186.78;5060922;28;45354;-65
2023/12/04 04:13:43;;;;;;;;;8.50;6.75;;;;;7.09;55.10;100205.06;5041764;28;45371;-66
2023/12/04 04:16:14;;;;;;;;;3.50;2.00;;;;;7.15;55.67;100220.81;5046950;28;45533;-65
2023/12/04 04:18:39;;;;;;;;;6.25;4.50;;;;;7.35;55.92;100237.97;5052682;28;46483;-65
2023/12/04 04:21:05;;;;;;;;;8.75;6.00;;;;;7.30;56.65;100229.28;5041175;28;45386;-65
2023/12/04 04:23:30;;;;;;;;;8.25;6.00;;;;;7.08;57.29;100198.00;5041315;28;45455;-65
2023/12/04 04:25:56;;;;;;;;;7.25;6.00;;;;;7.08;57.38;100189.16;5041066;28;45445;-65
2023/12/04 04:28:21;;;;;;;;;8.25;6.25;;;;;7.22;57.13;100202.94;5040879;28;45623;-65
2023/12/04 04:30:46;;;;;;;;;6.25;4.50;;;;;7.31;58.15;100213.31;5051978;28;45391;-65
2023/12/04 04:33:12;;;;;;;;;8.50;8.50;;;;;7.11;58.26;100183.78;5048163;28;45422;-65
2023/12/04 04:35:37;;;;;;;;;10.00;5.25;;;;;7.19;59.14;100187.09;5040792;28;45528;-65
2023/12/04 04:38:04;;;;;;;;;6.50;6.50;;;;;7.21;58.77;100180.81;5040201;28;45431;-65
2023/12/04 04:40:29;;;;;;;;;5.00;5.00;;;;;7.24;59.15;100178.09;5037201;28;45407;-65
2023/12/04 04:42:54;;;;;;;;;6.75;6.50;;;;;7.18;59.47;100167.66;5057458;28;45910;-65
2023/12/04 04:45:20;;;;;;;;;8.00;6.00;;;;;7.22;60.15;100169.31;5059970;28;45469;-65
2023/12/04 04:47:45;;;;;;;;;5.25;5.25;;;;;6.95;60.11;100120.50;5041169;28;45350;-65
2023/12/04 04:50:11;;;;;;;;;8.75;7.00;;;;;7.05;60.36;100132.63;5046559;28;45287;-65
2023/12/04 04:52:36;;;;;;;;;7.00;7.00;;;;;7.03;60.52;100128.25;5035740;28;45423;-65
2023/12/04 04:55:01;;;;;;;;;7.25;7.25;;;;;7.19;61.38;100158.75;5029558;28;45515;-65
2023/12/04 04:57:27;;;;;;;;;9.25;6.50;;;;;6.96;61.15;100118.72;5035552;28;46332;-65
2023/12/04 04:59:52;;;;;;;;;7.00;6.00;;;;;7.16;61.88;100139.41;5053897;28;45316;-65
2023/12/04 05:02:17;;;;;;;;;9.00;6.50;;;;;7.22;62.11;100141.91;5030871;28;45462;-65
2023/12/04 05:04:43;;;;;;;;;9.50;6.00;;;;;7.03;62.39;100107.91;5032794;28;45423;-65
2023/12/04 05:07:08;;;;;;;;;9.00;7.25;;;;;7.14;62.88;100112.03;5045731;28;46645;-65
2023/12/04 05:09:33;;;;;;;;;7.25;6.25;;;;;7.15;62.63;100119.06;5040356;28;45379;-65
2023/12/04 05:11:59;;;;;;;;;6.25;6.25;;;;;6.98;63.43;100093.91;5040367;28;45467;-65
2023/12/04 05:14:24;;;;;;;;;7.50;6.25;;;;;7.04;63.01;100098.16;5040591;28;45359;-65
2023/12/04 05:16:49;;;;;;;;;6.50;3.00;;;;;6.99;63.87;100087.66;5040261;28;45415;-65
2023/12/04 05:19:15;;;;;;;;;3.50;3.50;;;;;7.04;64.24;100095.50;5052963;28;45434;-65
2023/12/04 05:21:40;;;;;;;;;7.50;7.50;;;;;6.93;64.31;100074.56;5041489;28;45304;-65
2023/12/04 05:24:05;;;;;;;;;7.25;6.00;;;;;6.83;64.76;100054.50;5040305;28;45351;-65
2023/12/04 05:26:31;;;;;;;;;7.75;5.00;;;;;7.10;64.67;100097.09;5040069;28;45426;-65
2023/12/04 05:28:56;;;;;;;;;7.75;5.50;;;;;7.12;65.07;100096.16;5057514;28;45436;-65
2023/12/04 05:31:22;;;;;;;;;6.50;6.50;;;;;6.93;64.91;100055.13;5044646;28;45501;-65
2023/12/04 05:33:47;;;;;;;;;6.00;3.00;;;;;7.09;65.60;100075.00;5059226;28;45425;-65
2023/12/04 05:36:13;;;;;;;;;6.75;6.25;;;;;6.81;65.54;100032.47;5039881;28;46300;-65
2023/12/04 05:38:38;;;;;;;;;6.00;6.00;;;;;6.82;66.06;100039.53;5065033;28;45315;-65
2023/12/04 05:41:03;;;;;;;;;9.50;7.25;;;;;6.78;66.15;100025.47;5042853;28;45539;-65
2023/12/04 05:43:29;;;;;;;;;7.00;6.50;;;;;6.51;66.23;99978.50;5047660;28;50089;-65
2023/12/04 05:45:54;;;;;;;;;8.25;7.00;;;;;6.83;66.62;100041.25;5039753;28;45491;-65
2023/12/04 05:48:19;;;;;;;;;3.00;3.00;;;;;6.62;66.46;100010.91;5039664;28;45324;-65
2023/12/04 05:50:45;;;;;;;;;6.00;6.00;;;;;6.73;67.49;100022.06;5034464;28;45282;-66
2023/12/04 05:53:11;;;;;;;;;8.50;5.25;;;;;6.79;67.33;100026.34;5070232;28;45385;-65
2023/12/04 05:55:36;;;;;;;;;10.50;8.25;;;;;6.58;67.92;99996.88;5056640;28;45306;-65
2023/12/04 05:58:02;;;;;;;;;7.25;7.25;;;;;6.64;67.55;99993.16;5057728;28;58521;-65
2023/12/04 06:00:27;;;;;;;;;5.50;5.50;;;;;6.66;68.24;99988.66;5040063;28;45354;-65
2023/12/04 06:02:52;;;;;;;;;6.25;6.25;;;;;6.77;67.87;100007.81;5036894;28;45312;-65
2023/12/04 06:05:18;;;;;;;;;4.00;4.00;;;;;6.54;68.48;99959.88;5041128;28;47948;-65
2023/12/04 06:07:44;;;;;;;;;5.25;5.25;;;;;6.44;68.36;99960.09;5048398;28;45399;-65
2023/12/04 06:10:09;;;;;;;;;7.00;5.25;;;;;6.32;68.56;99931.28;5039985;28;45411;-65
2023/12/04 06:12:35;;;;;;;;;6.50;5.25;;;;;6.51;69.00;99963.44;5039626;28;45380;-65
2023/12/04 06:15:01;;;;;;;;;11.25;6.25;;;;;6.56;69.37;99974.78;5039274;28;46097;-66
2023/12/04 06:17:27;;;;;;;;;5.00;5.00;;;;;6.43;69.57;99957.50;5039553;28;45431;-65
2023/12/04 06:19:53;;;;;;;;;7.00;5.00;;;;;6.33;69.51;99933.03;5041552;28;45467;-65
2023/12/04 06:22:19;;;;;;;;;6.00;6.00;;;;;6.35;69.73;99930.31;5032250;28;46070;-65
2023/12/04 06:24:45;;;;;;;;;9.75;5.50;;;;;6.28;69.95;99916.38;5054521;28;46533;-65
2023/12/04 06:27:15;;;;;;;;;6.25;4.50;;;;;6.36;70.26;99921.47;5027777;28;45927;-65
2023/12/04 06:29:41;;;;;;;;;4.00;4.00;;;;;6.38;70.26;99930.25;5042910;28;45481;-65
2023/12/04 06:32:07;;;;;;;;;6.00;5.00;;;;;6.36;70.25;99929.44;5037637;28;45629;-65
2023/12/04 06:34:33;;;;;;;;;3.50;3.50;;;;;6.55;71.30;99962.47;5038777;28;45537;-65
2023/12/04 06:37:01;;;;;;;;;7.50;7.50;;;;;6.37;71.53;99924.09;5020983;28;45359;-65
2023/12/04 06:39:32;;;;;;;;;5.00;5.00;;;;;6.53;71.52;99945.72;5024127;28;45353;-65
2023/12/04 06:41:58;;;;;;;;;3.00;3.00;;;;;6.39;71.90;99924.03;5039099;28;45389;-65
2023/12/04 06:44:24;;;;;;;;;4.50;4.50;;;;;6.60;72.03;99954.38;5021182;28;47341;-65
2023/12/04 06:46:51;;;;;;;;;4.00;4.00;;;;;6.16;72.74;99882.28;5039903;28;45311;-65
2023/12/04 06:49:17;;;;;;;;;8.75;4.00;;;;;6.48;72.14;99929.06;5024187;28;45337;-65
2023/12/04 06:51:43;;;;;;;;;7.75;3.00;;;;;6.49;72.60;99928.16;5056693;28;45548;-65
2023/12/04 06:54:08;;;;;;;;;2.25;2.25;;;;;6.19;73.10;99883.06;5050986;28;45500;-66
2023/12/04 06:56:34;;;;;;;;;4.50;4.50;;;;;6.25;73.10;99884.69;5038636;28;45461;-65
2023/12/04 06:58:59;;;;;;;;;5.25;5.25;;;;;6.36;73.75;99898.47;5041023;28;45531;-65
2023/12/04 07:01:24;;;;;;;;;3.50;3.50;;;;;6.23;73.98;99879.44;5055096;28;45691;-65
2023/12/04 07:03:49;;;;;;;;;5.25;4.50;;;;;6.21;73.86;99870.63;5038928;28;46735;-65
2023/12/04 07:06:15;;;;;;;;;5.25;3.50;;;;;6.18;74.44;99862.78;5047375;28;45307;-65
2023/12/04 07:08:40;;;;;;;;;5.25;2.25;;;;;6.54;74.83;99922.75;5039815;28;45437;-65
2023/12/04 07:11:08;;;;;;;;;6.00;5.00;;;;;6.53;74.45;99913.03;5062584;28;45655;-65
2023/12/04 07:13:33;;;;;;;;;3.00;3.00;;;;;6.07;75.16;99836.56;5042296;28;46494;-66
2023/12/04 07:15:59;;;;;;;;;4.50;3.50;;;;;6.35;75.22;99879.97;5038667;28;45396;-65
2023/12/04 07:18:25;;;;;;;;;5.25;5.25;;;;;6.33;75.00;99876.50;5059953;28;46661;-65
2023/12/04 07:20:50;;;;;;;;;5.75;3.00;;;;;6.39;75.31;99884.28;5038763;28;45482;-66
2023/12/04 07:23:16;;;;;;;;;3.00;3.00;;;;;6.23;75.38;99858.22;5038233;28;46123;-65
2023/12/04 07:25:41;;;;;;;;;7.00;6.50;;;;;6.29;75.52;99862.47;5032911;28;45344;-66
2023/12/04 07:28:06;;;;;;;;;7.00;6.00;;;;;6.25;75.97;99860.84;5054113;28;45780;-65
2023/12/04 07:30:32;;;;;;;;;3.00;3.00;;;;;6.28;76.33;99872.22;5032549;28;45597;-66
2023/12/04 07:32:57;;;;;;;;;5.00;5.00;;;;;6.14;76.24;99847.88;5038919;28;46497;-65
2023/12/04 07:35:23;;;;;;;;;10.25;6.75;;;;;6.29;76.73;99871.28;5040426;28;45435;-66
2023/12/04 07:37:51;;;;;;;;;3.00;3.00;;;;;6.45;76.68;99892.94;5046070;28;45426;-66
2023/12/04 07:40:16;;;;;;;;;4.50;4.50;;;;;6.19;76.57;99851.25;5023402;28;45501;-65
2023/12/04 07:42:42;;;;;;;;;3.00;2.25;;;;;6.25;76.88;99843.13;5052286;28;45463;-65
2023/12/04 07:45:10;;;;;;;;;5.00;5.00;;;;;6.25;77.40;99839.63;5035243;28;45467;-65
2023/12/04 07:47:35;;;;;;;;;6.00;6.00;;;;;6.29;77.14;99836.81;5038340;28;45429;-65
2023/12/04 07:50:01;;;;;;;;;6.75;5.00;;;;;6.40;77.70;99847.13;5058354;28;45761;-64
2023/12/04 07:52:26;;;;;;;;;6.25;4.50;;;;;6.32;77.04;99838.53;5039463;28;45442;-65
2023/12/04 07:54:51;;;;;;;;;5.00;5.00;;;;;6.34;77.50;99833.19;5044292;28;45606;-65
2023/12/04 07:57:17;;;;;;;;;3.00;3.00;;;;;6.52;77.37;99864.44;5031648;28;45315;-65
2023/12/04 07:59:42;;;;;;;;;5.25;5.25;;;;;6.43;77.77;99841.75;5042002;28;45529;-65
2023/12/04 08:02:07;;;;;;;;;4.50;4.50;;;;;6.44;78.10;99837.28;5047630;28;45606;-64
2023/12/04 08:04:33;;;;;;;;;5.00;2.25;;;;;6.42;77.91;99823.22;5051703;28;45600;-64
2023/12/04 08:06:58;;;;;;;;;2.00;2.00;;;;;6.58;77.72;99839.53;5039161;28;45370;-65
2023/12/04 08:09:23;;;;;;;;;3.50;3.50;;;;;6.69;77.78;99848.03;5043357;28;45592;-65
2023/12/04 08:11:49;;;;;;;;;7.25;5.75;;;;;6.68;78.55;99849.81;5050679;28;46521;-66
2023/12/04 08:14:16;;;;;;;;;9.00;6.00;;;;;6.67;78.12;99828.66;5045324;28;45337;-66
2023/12/04 08:16:41;;;;;;;;;5.50;5.50;;;;;6.77;78.62;99847.81;5039895;28;45520;-66
2023/12/04 08:19:06;;;;;;;;;4.50;4.50;;;;;6.78;78.58;99841.56;5054563;28;45514;-65
2023/12/04 08:21:32;;;;;;;;;2.00;2.00;;;;;6.77;78.28;99834.53;5031643;28;67310;-67
2023/12/04 08:23:58;;;;;;;;;6.00;6.00;;;;;6.81;78.20;99836.16;5053352;28;46336;-66
2023/12/04 08:26:24;;;;;;;;;5.75;5.75;;;;;6.83;78.71;99831.66;5052031;28;45444;-67
2023/12/04 08:28:50;;;;;;;;;7.50;5.25;;;;;6.79;79.00;99822.09;5048280;28;45538;-66
2023/12/04 08:31:16;;;;;;;;;4.00;2.00;;;;;6.64;79.29;99810.16;5046332;28;46153;-66
2023/12/04 08:33:42;;;;;;;;;5.00;5.00;;;;;6.52;79.74;99776.94;5052483;28;45446;-66
2023/12/04 08:36:08;;;;;;;;;6.00;5.00;;;;;6.78;79.75;99815.91;5028281;28;45447;-66
2023/12/04 08:38:33;;;;;;;;;3.00;2.00;;;;;6.54;79.08;99758.34;5053995;28;46129;-66
2023/12/04 08:40:58;;;;;;;;;6.00;5.00;;;;;6.76;79.33;99796.50;5059374;28;46436;-67
2023/12/04 08:43:24;;;;;;;;;2.00;2.00;;;;;6.89;79.95;99820.88;5052364;28;45411;-66
2023/12/04 08:45:49;;;;;;;;;5.00;5.00;;;;;6.84;79.85;99794.47;5041616;28;45437;-66
2023/12/04 08:48:14;;;;;;;;;3.25;3.25;;;;;6.88;79.71;99805.84;5057995;28;45610;-66
2023/12/04 08:50:40;;;;;;;;;6.00;3.00;;;;;6.87;80.36;99796.19;5042394;28;47187;-67
2023/12/04 08:53:05;;;;;;;;;3.00;3.00;;;;;6.79;80.00;99769.91;5044992;28;45446;-66
2023/12/04 08:55:31;;;;;;;;;6.50;4.75;;;;;6.95;80.01;99782.66;5042607;28;45427;-66
2023/12/04 08:57:56;;;;;;;;;4.00;4.00;;;;;6.89;80.35;99765.16;5058840;28;45394;-67
2023/12/04 09:00:22;;;;;;;;;3.50;3.50;;;;;6.84;80.16;99749.38;5030515;28;51135;-66
2023/12/04 09:02:48;;;;;;;;;5.00;5.00;;;;;7.07;80.22;99786.69;5049827;28;45561;-66
2023/12/04 09:05:14;;;;;;;;;2.75;2.75;;;;;6.96;80.09;99769.34;5058105;28;45309;-66
2023/12/04 09:07:39;;;;;;;;;4.50;4.50;;;;;6.89;80.70;99759.84;5053300;28;45898;-66
2023/12/04 09:10:05;;;;;;;;;4.75;3.00;;;;;7.04;80.11;99772.59;5036007;28;47437;-66
2023/12/04 09:12:30;;;;;;;;;2.00;2.00;;;;;6.93;80.35;99737.59;5035364;28;45745;-66
2023/12/04 09:14:56;;;;;;;;;3.00;3.00;;;;;7.10;80.76;99773.31;5040306;28;48506;-66
2023/12/04 09:17:21;;;;;;;;;6.00;3.50;;;;;6.95;80.72;99751.69;5056894;28;45398;-66
2023/12/04 09:19:46;;;;;;;;;4.25;2.00;;;;;7.02;80.83;99750.56;5054096;28;45509;-66
2023/12/04 09:22:12;;;;;;;;;6.00;2.50;;;;;6.95;81.15;99737.53;5054981;28;63461;-66
2023/12/04 09:24:37;;;;;;;;;2.50;2.50;;;;;7.16;81.28;99773.97;5046304;28;45320;-66
2023/12/04 09:27:02;;;;;;;;;5.75;4.50;;;;;6.99;80.91;99734.75;5058238;28;49917;-66
2023/12/04 09:29:28;;;;;;;;;5.75;3.00;;;;;6.99;80.99;99715.31;5050778;28;45972;-66
2023/12/04 09:31:53;;;;;;;;;3.50;3.00;;;;;7.04;80.96;99719.53;5050288;28;45497;-66
2023/12/04 09:34:20;;;;;;;;;3.25;2.50;;;;;7.16;81.47;99738.63;5038910;28;45586;-67
2023/12/04 09:36:46;;;;;;;;;0.00;0.00;;;;;7.20;81.42;99724.31;5040353;28;45655;-68
2023/12/04 09:39:11;;;;;;;;;6.75;6.00;;;;;7.19;81.53;99709.31;5053608;28;46209;-66
2023/12/04 09:41:39;;;;;;;;;6.75;5.00;;;;;7.26;81.74;99716.13;5050169;28;58851;-67
2023/12/04 09:44:06;;;;;;;;;5.00;3.25;;;;;7.04;81.95;99681.53;5034353;28;45819;-66
2023/12/04 09:46:33;;;;;;;;;3.50;3.50;;;;;7.31;81.57;99715.97;5056003;28;45421;-67
2023/12/04 09:48:59;;;;;;;;;2.25;1.50;;;;;7.29;81.86;99704.56;5068189;28;46353;-67
2023/12/04 09:51:25;;;;;;;;;4.50;3.50;;;;;7.42;81.73;99719.13;5043904;28;45393;-66
2023/12/04 09:53:52;;;;;;;;;3.00;3.00;;;;;7.42;81.93;99711.16;5038237;28;45480;-66
2023/12/04 09:56:18;;;;;;;;;3.00;3.00;;;;;7.47;82.09;99701.25;5043144;28;45513;-67
2023/12/04 09:58:45;;;;;;;;;3.00;3.00;;;;;7.34;81.72;99673.41;5035592;28;46138;-67
2023/12/04 10:01:11;;;;;;;;;5.00;3.00;;;;;7.44;82.42;99680.09;5054527;28;45441;-67
2023/12/04 10:03:38;;;;;;;;;4.25;4.25;;;;;7.47;82.30;99669.38;5037780;28;45537;-67
2023/12/04 10:06:05;;;;;;;;;3.25;3.25;;;;;7.53;82.49;99679.75;5055866;28;45535;-67
2023/12/04 10:08:30;;;;;;;;;3.00;3.00;;;;;7.51;82.67;99660.34;5056241;28;46256;-67
2023/12/04 10:10:55;;;;;;;;;2.75;2.75;;;;;7.55;82.66;99645.19;5055743;28;65613;-67
2023/12/04 10:13:21;;;;;;;;;3.00;1.75;;;;;7.51;82.69;99638.25;5056645;28;45419;-68
2023/12/04 10:15:47;;;;;;;;;5.00;5.00;;;;;7.55;82.74;99631.91;5054303;28;64549;-68
2023/12/04 10:18:30;;;;;;;;;5.00;5.00;;;;;7.60;82.88;99635.25;5056239;28;45572;-68
2023/12/04 10:20:56;;;;;;;;;1.50;1.50;;;;;7.65;83.09;99635.06;5048666;28;45523;-68
2023/12/04 10:23:22;;;;;;;;;3.00;2.25;;;;;7.61;83.07;99629.88;5064924;28;45367;-67
2023/12/04 10:25:50;;;;;;;;;3.75;3.25;;;;;7.64;83.55;99628.91;5022814;28;46325;-66
2023/12/04 10:28:16;;;;;;;;;3.50;3.00;;;;;7.68;83.55;99611.06;5054620;28;45482;-67
2023/12/04 10:30:41;;;;;;;;;5.50;5.50;;;;;7.73;83.03;99625.88;5055218;28;45631;-68
2023/12/04 10:33:07;;;;;;;;;3.00;3.00;;;;;7.79;83.85;99617.69;5045350;28;45370;-68
2023/12/04 10:35:38;;;;;;;;;2.50;2.50;;;;;7.86;83.89;99615.66;5022643;28;45593;-68
2023/12/04 10:38:04;;;;;;;;;4.75;2.00;;;;;7.90;83.98;99613.72;5054427;28;46567;-68
2023/12/04 10:40:31;;;;;;;;;7.00;6.00;;;;;7.89;84.37;99627.97;5042751;28;45563;-68
2023/12/04 10:43:10;;;;;;;;;6.00;4.00;;;;;7.94;84.75;99621.53;5035742;28;45707;-68
2023/12/04 10:45:40;;;;;;;;;3.00;3.00;;;;;7.77;84.54;99579.69;5026078;28;45481;-68
2023/12/04 10:48:06;;;;;;;;;6.00;4.25;;;;;7.91;84.25;99588.91;5038412;28;45283;-68
2023/12/04 10:50:34;;;;;;;;;3.00;3.00;;;;;7.93;84.37;99589.72;5052113;28;45379;-68
2023/12/04 10:53:03;;;;;;;;;4.25;4.25;;;;;7.93;85.48;99587.03;5052984;28;45469;-68
2023/12/04 10:55:29;;;;;;;;;6.50;2.00;;;;;8.05;84.65;99596.31;5048917;28;45470;-68
2023/12/04 10:57:55;;;;;;;;;2.50;2.50;;;;;8.03;84.69;99583.09;5046615;28;45421;-68
2023/12/04 11:00:21;;;;;;;;;8.00;3.00;;;;;7.92;85.00;99548.13;5055569;28;45443;-68
2023/12/04 11:02:49;;;;;;;;;4.00;3.25;;;;;8.18;85.06;99586.06;5056959;28;45656;-68
2023/12/04 11:05:21;;;;;;;;;6.00;4.25;;;;;8.22;85.03;99567.28;5048689;28;46821;-68
2023/12/04 11:07:57;;;;;;;;;6.75;5.50;;;;;8.26;84.95;99565.34;5047804;28;45592;-68
2023/12/04 11:10:26;;;;;;;;;6.00;6.00;;;;;8.27;85.29;99549.34;5045101;28;45298;-68
2023/12/04 11:13:05;;;;;;;;;2.75;2.50;;;;;8.30;85.21;99550.97;5038795;28;45512;-68
2023/12/04 11:15:43;;;;;;;;;7.25;4.00;;;;;8.29;84.68;99539.50;5028035;28;45424;-68
2023/12/04 11:18:13;;;;;;;;;7.25;3.75;;;;;8.26;85.16;99506.84;5052962;28;45662;-67
2023/12/04 11:20:46;;;;;;;;;3.25;3.25;;;;;8.33;85.00;99511.81;5036479;28;45357;-68
2023/12/04 11:23:14;;;;;;;;;5.50;2.50;;;;;8.25;84.98;99487.41;5043911;28;45495;-68
2023/12/04 11:25:40;;;;;;;;;4.00;4.00;;;;;8.35;85.13;99491.38;5052886;28;45240;-68
2023/12/04 11:28:06;;;;;;;;;7.00;6.00;;;;;8.46;85.30;99487.41;5054369;28;46628;-67
2023/12/04 11:30:32;;;;;;;;;5.00;4.00;;;;;8.44;85.24;99482.16;5041171;28;45416;-68